createdAt,value
2023-04-03T00:01:22.460Z,10.40
2023-04-03T00:03:51.164Z,6.30
2023-04-03T00:06:19.248Z,10.50
2023-04-03T00:08:47.261Z,8.10
2023-04-03T00:11:16.239Z,11.90
2023-04-03T00:13:44.537Z,7.80
2023-04-03T00:16:12.818Z,10.70
2023-04-03T00:18:41.233Z,9.20
2023-04-03T00:21:11.707Z,7.20
2023-04-03T00:23:39.552Z,8.20
2023-04-03T00:26:07.695Z,7.00
2023-04-03T00:28:35.513Z,10.30
2023-04-03T00:31:03.801Z,11.70
2023-04-03T00:33:31.647Z,8.40
2023-04-03T00:35:59.840Z,6.10
2023-04-03T00:38:27.745Z,7.70
2023-04-03T00:40:55.599Z,7.20
2023-04-03T00:43:27.403Z,8.50
2023-04-03T00:45:58.642Z,7.80
2023-04-03T00:48:51.389Z,11.90
2023-04-03T00:51:25.505Z,11.90
2023-04-03T00:53:59.571Z,5.90
2023-04-03T00:56:29.317Z,8.80
2023-04-03T00:59:03.252Z,11.10
2023-04-03T01:01:31.749Z,16.00
2023-04-03T01:04:05.076Z,7.40
2023-04-03T01:06:38.485Z,7.70
2023-04-03T01:09:06.874Z,7.70
2023-04-03T01:11:34.957Z,7.20
2023-04-03T01:14:03.149Z,9.70
2023-04-03T01:16:32.867Z,7.70
2023-04-03T01:19:02.202Z,13.30
2023-04-03T01:22:03.852Z,14.40
2023-04-03T01:24:37.534Z,8.20
2023-04-03T01:27:08.183Z,6.00
2023-04-03T01:29:39.491Z,10.40
2023-04-03T01:32:07.458Z,10.80
2023-04-03T01:34:35.407Z,9.10
2023-04-03T01:37:03.447Z,6.30
2023-04-03T01:39:31.342Z,8.90
2023-04-03T01:42:00.424Z,12.30
2023-04-03T01:44:28.409Z,7.00
2023-04-03T01:46:56.416Z,9.80
2023-04-03T01:49:24.298Z,9.80
2023-04-03T01:51:52.180Z,7.80
2023-04-03T01:54:20.080Z,8.30
2023-04-03T01:56:48.154Z,8.30
2023-04-03T01:59:18.060Z,9.50
2023-04-03T02:01:46.316Z,8.50
2023-04-03T02:04:14.346Z,6.40
2023-04-03T02:06:42.321Z,6.50
2023-04-03T02:09:10.295Z,8.00
2023-04-03T02:11:38.259Z,5.80
2023-04-03T02:14:06.393Z,7.20
2023-04-03T02:16:34.369Z,7.90
2023-04-03T02:19:02.311Z,9.10
2023-04-03T02:21:30.364Z,6.80
2023-04-03T02:23:58.471Z,9.30
2023-04-03T02:26:26.936Z,9.10
2023-04-03T02:28:54.894Z,9.60
2023-04-03T02:31:22.864Z,11.00
2023-04-03T02:33:51.142Z,11.10
2023-04-03T02:36:18.971Z,7.10
2023-04-03T02:38:46.922Z,9.60
2023-04-03T02:41:15.682Z,6.60
2023-04-03T02:43:43.516Z,10.10
2023-04-03T02:46:11.496Z,8.70
2023-04-03T02:48:39.380Z,10.00
2023-04-03T02:51:07.381Z,8.00
2023-04-03T02:53:35.480Z,8.60
2023-04-03T02:56:03.458Z,9.60
2023-04-03T02:58:31.334Z,14.20
2023-04-03T03:00:59.232Z,7.90
2023-04-03T03:03:27.152Z,8.20
2023-04-03T03:06:13.707Z,9.00
2023-04-03T03:08:42.794Z,8.30
2023-04-03T03:11:11.482Z,6.40
2023-04-03T03:13:39.399Z,8.50
2023-04-03T03:16:07.791Z,9.40
2023-04-03T03:18:36.327Z,4.80
2023-04-03T03:21:04.880Z,6.30
2023-04-03T03:23:33.669Z,7.40
2023-04-03T03:26:06.307Z,4.50
2023-04-03T03:28:34.503Z,5.90
2023-04-03T03:31:02.454Z,5.70
2023-04-03T03:33:31.018Z,9.60
2023-04-03T03:35:59.036Z,8.10
2023-04-03T03:38:27.302Z,7.30
2023-04-03T03:40:55.313Z,6.30
2023-04-03T03:43:23.364Z,13.60
2023-04-03T03:45:53.480Z,8.30
2023-04-03T03:48:22.187Z,11.30
2023-04-03T03:50:51.200Z,11.50
2023-04-03T03:53:20.283Z,5.20
2023-04-03T03:55:48.355Z,6.10
2023-04-03T03:58:16.256Z,9.90
2023-04-03T04:00:44.279Z,6.60
2023-04-03T04:03:12.306Z,9.40
2023-04-03T04:05:40.485Z,9.50
2023-04-03T04:08:08.346Z,7.90
2023-04-03T04:10:37.016Z,7.40
2023-04-03T04:13:04.949Z,9.30
2023-04-03T04:15:32.904Z,6.20
2023-04-03T04:18:00.882Z,7.70
2023-04-03T04:20:28.900Z,6.60
2023-04-03T04:22:56.924Z,9.30
2023-04-03T04:25:25.071Z,5.80
2023-04-03T04:27:53.039Z,11.10
2023-04-03T04:30:21.005Z,8.90
2023-04-03T04:32:49.035Z,10.70
2023-04-03T04:35:18.407Z,8.40
2023-04-03T04:37:46.668Z,8.00
2023-04-03T04:40:15.763Z,5.70
2023-04-03T04:42:43.708Z,6.30
2023-04-03T04:45:11.883Z,13.00
2023-04-03T04:47:39.819Z,6.70
2023-04-03T04:50:08.670Z,7.10
2023-04-03T04:52:36.574Z,6.30
2023-04-03T04:55:05.542Z,10.50
2023-04-03T04:57:33.936Z,15.70
2023-04-03T05:00:01.980Z,15.20
2023-04-03T05:02:30.157Z,10.40
2023-04-03T05:04:58.265Z,9.40
2023-04-03T05:07:26.242Z,12.60
2023-04-03T05:09:54.106Z,11.20
2023-04-03T05:12:23.221Z,62.70
2023-04-03T05:14:51.124Z,13.70
2023-04-03T05:17:19.049Z,9.00
2023-04-03T05:19:47.103Z,14.50
2023-04-03T05:22:15.066Z,12.80
2023-04-03T05:24:43.169Z,9.40
2023-04-03T05:27:12.058Z,7.10
2023-04-03T05:29:40.043Z,10.70
2023-04-03T05:32:07.907Z,11.10
2023-04-03T05:34:35.937Z,15.00
2023-04-03T05:37:05.420Z,12.50
2023-04-03T05:39:33.913Z,10.00
2023-04-03T05:42:01.777Z,6.30
2023-04-03T05:44:29.731Z,9.90
2023-04-03T05:46:57.682Z,10.40
2023-04-03T05:49:25.673Z,16.90
2023-04-03T05:51:53.572Z,12.10
2023-04-03T05:54:30.141Z,24.00
2023-04-03T05:56:58.175Z,8.30
2023-04-03T05:59:26.116Z,8.50
2023-04-03T06:01:53.978Z,8.50
2023-04-03T06:04:22.285Z,8.50
2023-04-03T06:06:55.861Z,13.20
2023-04-03T06:09:27.266Z,7.20
2023-04-03T06:11:55.375Z,5.00
2023-04-03T06:14:23.215Z,6.80
2023-04-03T06:16:51.091Z,8.30
2023-04-03T06:19:19.332Z,9.60
2023-04-03T06:21:48.308Z,13.50
2023-04-03T06:24:18.129Z,9.40
2023-04-03T06:26:46.718Z,13.80
2023-04-03T06:29:14.802Z,8.10
2023-04-03T06:31:42.761Z,8.30
2023-04-03T06:34:11.929Z,8.50
2023-04-03T06:36:40.593Z,5.70
2023-04-03T06:39:10.517Z,8.80
2023-04-03T06:41:38.486Z,9.80
2023-04-03T06:44:06.451Z,7.40
2023-04-03T06:46:34.289Z,5.40
2023-04-03T06:49:02.560Z,8.30
2023-04-03T06:51:31.321Z,9.90
2023-04-03T06:54:00.743Z,14.80
2023-04-03T06:56:29.358Z,7.40
2023-04-03T06:58:58.788Z,7.50
2023-04-03T07:01:29.289Z,6.80
2023-04-03T07:03:57.555Z,5.00
2023-04-03T07:06:28.858Z,8.50
2023-04-03T07:08:57.054Z,7.40
2023-04-03T07:11:25.103Z,9.80
2023-04-03T07:13:53.579Z,9.90
2023-04-03T07:16:21.800Z,5.60
2023-04-03T07:18:49.783Z,8.00
2023-04-03T07:21:17.876Z,6.50
2023-04-03T07:23:45.965Z,8.90
2023-04-03T07:26:13.876Z,5.60
2023-04-03T07:28:42.537Z,7.60
2023-04-03T07:31:14.760Z,7.80
2023-04-03T07:33:43.949Z,8.80
2023-04-03T07:36:16.917Z,8.20
2023-04-03T07:38:44.814Z,6.80
2023-04-03T07:41:18.731Z,7.00
2023-04-03T07:43:47.989Z,5.10
2023-04-03T07:46:15.872Z,7.40
2023-04-03T07:48:43.900Z,6.30
2023-04-03T07:51:11.783Z,7.00
2023-04-03T07:53:39.775Z,7.60
2023-04-03T07:56:08.199Z,9.50
2023-04-03T07:58:36.980Z,8.60
2023-04-03T08:01:05.254Z,8.10
2023-04-03T08:03:33.324Z,7.00
2023-04-03T08:06:09.126Z,4.00
2023-04-03T08:08:39.607Z,5.50
2023-04-03T08:11:09.099Z,5.20
2023-04-03T08:13:37.171Z,8.30
2023-04-03T08:16:13.666Z,7.40
2023-04-03T08:18:41.483Z,8.10
2023-04-03T08:21:11.765Z,6.40
2023-04-03T08:23:42.728Z,5.70
2023-04-03T08:26:16.393Z,7.40
2023-04-03T08:28:44.359Z,7.20
2023-04-03T08:31:18.094Z,7.00
2023-04-03T08:33:46.365Z,10.70
2023-04-03T08:36:29.307Z,4.90
2023-04-03T08:41:40.709Z,6.10
2023-04-03T08:44:29.910Z,18.50
2023-04-03T08:47:26.342Z,10.70
2023-04-03T08:50:01.792Z,14.30
2023-04-03T08:53:07.710Z,10.30
2023-04-03T08:55:49.783Z,5.30
2023-04-03T08:58:23.607Z,6.90
2023-04-03T09:01:09.086Z,9.90
2023-04-03T09:03:41.313Z,6.50
2023-04-03T09:06:23.540Z,7.70
2023-04-03T09:09:36.432Z,7.30
2023-04-03T09:12:41.205Z,6.60
2023-04-03T09:15:37.733Z,6.60
2023-04-03T09:18:17.856Z,3.20
2023-04-03T09:21:17.707Z,7.00
2023-04-03T09:23:50.810Z,7.70
2023-04-03T09:26:36.460Z,4.90
2023-04-03T09:29:08.837Z,5.00
2023-04-03T09:31:44.911Z,8.30
2023-04-03T09:34:33.437Z,8.10
2023-04-03T09:37:09.772Z,6.20
2023-04-03T09:39:54.591Z,5.40
2023-04-03T09:42:25.425Z,3.70
2023-04-03T09:45:04.859Z,7.30
2023-04-03T09:47:36.221Z,10.30
2023-04-03T09:50:16.062Z,16.60
2023-04-03T09:52:47.242Z,5.10
2023-04-03T09:55:15.442Z,5.50
2023-04-03T09:57:43.323Z,6.10
2023-04-03T10:00:39.745Z,7.60
2023-04-03T10:03:29.801Z,5.20
2023-04-03T10:05:58.889Z,6.00
2023-04-03T10:08:30.718Z,6.40
2023-04-03T10:11:19.853Z,11.40
2023-04-03T10:14:03.994Z,9.00
2023-04-03T10:16:48.567Z,10.10
2023-04-03T10:19:44.878Z,8.10
2023-04-03T10:22:56.259Z,7.80
2023-04-03T10:25:41.409Z,5.00
2023-04-03T10:28:55.934Z,6.30
2023-04-03T10:31:35.351Z,8.90
2023-04-03T10:34:37.224Z,6.10
2023-04-03T10:37:37.612Z,5.10
2023-04-03T10:40:52.680Z,5.80
2023-04-03T10:43:26.731Z,5.70
2023-04-03T10:46:07.326Z,9.50
2023-04-03T10:49:12.979Z,6.10
2023-04-03T10:51:47.256Z,4.40
2023-04-03T10:54:26.181Z,4.50
2023-04-03T10:57:12.927Z,5.00
2023-04-03T11:00:06.389Z,4.20
2023-04-03T11:02:49.541Z,5.10
2023-04-03T11:05:31.013Z,7.00
2023-04-03T11:08:04.348Z,4.60
2023-04-03T11:10:48.768Z,9.60
2023-04-03T11:13:33.912Z,6.40
2023-04-03T11:16:03.890Z,4.80
2023-04-03T11:18:53.754Z,4.00
2023-04-03T11:21:30.672Z,7.30
2023-04-03T11:24:01.630Z,6.60
2023-04-03T11:26:37.776Z,3.90
2023-04-03T11:29:17.888Z,6.60
2023-04-03T11:35:02.651Z,9.10
2023-04-03T11:37:45.982Z,6.30
2023-04-03T11:40:17.016Z,8.50
2023-04-03T11:42:54.423Z,4.90
2023-04-03T11:45:51.962Z,6.40
2023-04-03T11:48:24.892Z,4.10
2023-04-03T11:50:53.337Z,7.20
2023-04-03T11:53:30.329Z,4.70
2023-04-03T11:56:24.895Z,7.90
2023-04-03T11:59:19.287Z,5.40
2023-04-03T12:01:59.104Z,4.90
2023-04-03T12:04:29.917Z,5.20
2023-04-03T12:07:16.498Z,5.70
2023-04-03T12:09:44.673Z,13.00
2023-04-03T12:12:29.949Z,9.90
2023-04-03T12:15:42.578Z,7.20
2023-04-03T12:18:54.586Z,5.70
2023-04-03T12:21:45.999Z,7.60
2023-04-03T12:24:17.022Z,5.70
2023-04-03T12:27:17.246Z,5.60
2023-04-03T12:29:48.922Z,7.90
2023-04-03T12:32:28.043Z,6.70
2023-04-03T12:34:58.916Z,4.40
2023-04-03T12:38:06.955Z,8.50
2023-04-03T12:40:43.688Z,7.90
2023-04-03T12:43:56.394Z,6.10
2023-04-03T12:46:25.807Z,9.90
2023-04-03T12:48:57.618Z,9.80
2023-04-03T12:51:46.519Z,6.10
2023-04-03T12:54:28.537Z,8.80
2023-04-03T12:57:22.726Z,7.10
2023-04-03T12:59:50.720Z,11.20
2023-04-03T13:02:29.061Z,7.40
2023-04-03T13:05:01.594Z,7.10
2023-04-03T13:07:35.941Z,7.10
2023-04-03T13:10:10.016Z,6.50
2023-04-03T13:13:10.941Z,14.60
2023-04-03T13:15:49.987Z,10.50
2023-04-03T13:18:33.772Z,10.70
2023-04-03T13:21:27.816Z,6.50
2023-04-03T13:24:13.731Z,8.70
2023-04-03T13:26:43.506Z,6.30
2023-04-03T13:29:31.161Z,11.00
2023-04-03T13:32:02.129Z,23.70
2023-04-03T13:34:38.489Z,13.30
2023-04-03T13:37:06.522Z,20.00
2023-04-03T13:39:38.388Z,18.70
2023-04-03T13:42:24.116Z,7.20
2023-04-03T13:45:29.633Z,11.10
2023-04-03T13:48:22.151Z,10.30
2023-04-03T13:51:06.426Z,12.40
2023-04-03T13:56:21.943Z,12.50
2023-04-03T13:59:18.135Z,12.90
2023-04-03T14:01:54.168Z,14.60
2023-04-03T14:04:29.516Z,6.70
2023-04-03T14:06:57.966Z,5.80
2023-04-03T14:09:28.622Z,14.60
2023-04-03T14:12:11.326Z,9.10
2023-04-03T14:14:46.721Z,9.70
2023-04-03T14:17:25.072Z,7.50
2023-04-03T14:19:56.653Z,10.00
2023-04-03T14:22:26.153Z,8.60
2023-04-03T14:24:54.784Z,8.20
2023-04-03T14:27:35.799Z,6.90
2023-04-03T14:30:05.839Z,11.30
2023-04-03T14:32:34.425Z,13.20
2023-04-03T14:35:03.380Z,14.60
2023-04-03T14:37:32.653Z,7.40
2023-04-03T14:40:03.246Z,9.30
2023-04-03T14:42:35.704Z,5.40
2023-04-03T14:45:09.628Z,7.80
2023-04-03T14:48:02.544Z,9.30
2023-04-03T14:50:30.497Z,5.80
2023-04-03T14:52:59.885Z,12.10
2023-04-03T14:55:28.790Z,12.90
2023-04-03T14:57:59.468Z,8.20
2023-04-03T15:00:28.388Z,9.80
2023-04-03T15:02:56.397Z,16.40
2023-04-03T15:05:24.413Z,10.30
2023-04-03T15:07:57.383Z,13.70
2023-04-03T15:10:28.676Z,10.50
2023-04-03T15:12:57.219Z,10.50
2023-04-03T15:15:26.015Z,13.40
2023-04-03T15:17:57.383Z,9.30
2023-04-03T15:20:28.001Z,13.50
2023-04-03T15:22:57.528Z,9.10
2023-04-03T15:25:26.494Z,9.90
2023-04-03T15:27:56.275Z,27.50
2023-04-03T15:30:24.335Z,9.50
2023-04-03T15:32:52.512Z,24.60
2023-04-03T15:35:20.590Z,28.70
2023-04-03T15:37:49.261Z,17.10
2023-04-03T15:40:17.334Z,23.10
2023-04-03T15:42:45.232Z,13.40
2023-04-03T15:45:13.124Z,26.90
2023-04-03T15:47:41.222Z,20.40
2023-04-03T15:50:10.050Z,21.20
2023-04-03T15:52:37.912Z,17.50
2023-04-03T15:55:07.018Z,20.00
2023-04-03T16:00:02.757Z,37.70
2023-04-03T16:02:30.799Z,18.00
2023-04-03T16:04:58.896Z,18.60
2023-04-03T16:07:27.105Z,28.20
2023-04-03T16:09:55.119Z,30.30
2023-04-03T16:12:23.694Z,15.80
2023-04-03T16:14:52.822Z,14.00
2023-04-03T16:17:24.031Z,11.50
2023-04-03T16:19:53.946Z,13.90
2023-04-03T16:22:22.962Z,13.90
2023-04-03T16:24:51.095Z,12.90
2023-04-03T16:27:19.747Z,23.90
2023-04-03T16:29:47.832Z,22.60
2023-04-03T16:32:15.962Z,20.90
2023-04-03T16:34:43.929Z,52.90
2023-04-03T16:37:11.858Z,20.00
2023-04-03T16:39:39.764Z,17.50
2023-04-03T16:42:07.662Z,16.50
2023-04-03T16:44:35.646Z,15.90
2023-04-03T16:47:03.950Z,19.30
2023-04-03T16:49:33.982Z,21.50
2023-04-03T16:52:04.349Z,21.00
2023-04-03T16:54:33.013Z,19.60
2023-04-03T16:57:00.987Z,15.90
2023-04-03T16:59:29.041Z,13.70
2023-04-03T17:01:57.268Z,17.20
2023-04-03T17:04:25.512Z,11.20
2023-04-03T17:06:53.373Z,10.60
2023-04-03T17:09:22.053Z,13.10
2023-04-03T17:11:50.019Z,17.80
2023-04-03T17:14:18.239Z,16.60
2023-04-03T17:16:46.370Z,17.00
2023-04-03T17:19:15.090Z,19.50
2023-04-03T17:21:43.137Z,15.20
2023-04-03T17:24:13.541Z,13.20
2023-04-03T17:26:43.025Z,13.60
2023-04-03T17:29:13.616Z,14.90
2023-04-03T17:31:41.832Z,15.50
2023-04-03T17:34:12.155Z,15.20
2023-04-03T17:36:41.347Z,16.00
2023-04-03T17:39:09.307Z,23.40
2023-04-03T17:41:37.328Z,13.80
2023-04-03T17:44:06.210Z,11.40
2023-04-03T17:46:35.432Z,16.20
2023-04-03T17:49:04.720Z,15.90
2023-04-03T17:51:36.344Z,22.80
2023-04-03T17:54:04.307Z,34.30
2023-04-03T17:56:32.216Z,23.30
2023-04-03T17:59:00.375Z,31.60
2023-04-03T18:01:32.018Z,24.50
2023-04-03T18:04:03.168Z,23.80
2023-04-03T18:06:39.854Z,18.20
2023-04-03T18:09:17.556Z,24.10
2023-04-03T18:11:47.609Z,28.30
2023-04-03T18:14:20.343Z,29.50
2023-04-03T18:21:49.652Z,27.10
2023-04-03T18:24:20.060Z,36.70
2023-04-03T18:26:54.111Z,36.90
2023-04-03T18:29:22.543Z,36.00
2023-04-03T18:31:53.065Z,50.40
2023-04-03T18:34:21.309Z,41.80
2023-04-03T18:36:49.450Z,39.50
2023-04-03T18:39:17.472Z,52.30
2023-04-03T18:41:45.683Z,43.80
2023-04-03T18:44:16.737Z,38.10
2023-04-03T18:46:45.014Z,35.30
2023-04-03T18:49:14.140Z,36.20
2023-04-03T18:51:42.410Z,17.10
2023-04-03T18:54:18.365Z,16.60
2023-04-03T18:56:49.414Z,19.80
2023-04-03T18:59:17.417Z,22.90
2023-04-03T19:01:48.052Z,22.80
2023-04-03T19:04:16.257Z,18.60
2023-04-03T19:06:44.238Z,18.60
2023-04-03T19:09:14.464Z,11.70
2023-04-03T19:11:42.473Z,16.20
2023-04-03T19:14:16.714Z,15.60
2023-04-03T19:16:45.553Z,20.40
2023-04-03T19:19:13.747Z,14.60
2023-04-03T19:21:42.222Z,15.40
2023-04-03T19:24:12.653Z,20.00
2023-04-03T19:26:42.505Z,19.60
2023-04-03T19:29:10.780Z,18.20
2023-04-03T19:31:39.397Z,14.20
2023-04-03T19:34:08.124Z,19.30
2023-04-03T19:36:36.512Z,19.60
2023-04-03T19:39:06.075Z,22.80
2023-04-03T19:41:35.793Z,22.80
2023-04-03T19:44:06.612Z,27.60
2023-04-03T19:46:35.648Z,21.70
2023-04-03T19:49:04.311Z,23.00
2023-04-03T19:51:32.278Z,24.60
2023-04-03T19:54:00.404Z,21.20
2023-04-03T19:56:28.313Z,42.40
2023-04-03T19:58:57.023Z,32.40
2023-04-03T20:01:26.968Z,34.80
2023-04-03T20:03:55.575Z,29.90
2023-04-03T20:06:23.534Z,24.60
2023-04-03T20:08:51.591Z,22.30
2023-04-03T20:11:19.947Z,17.50
2023-04-03T20:13:52.469Z,19.50
2023-04-03T20:16:24.525Z,20.00
2023-04-03T20:18:55.918Z,21.50
2023-04-03T20:21:30.763Z,23.40
2023-04-03T20:24:04.621Z,28.50
2023-04-03T20:26:34.829Z,24.60
2023-04-03T20:29:04.461Z,19.40
2023-04-03T20:31:33.591Z,17.60
2023-04-03T20:34:02.118Z,19.20
2023-04-03T20:36:31.166Z,19.30
2023-04-03T20:38:59.845Z,14.90
2023-04-03T20:41:28.003Z,17.50
2023-04-03T20:43:55.916Z,19.70
2023-04-03T20:46:34.960Z,16.80
2023-04-03T20:49:10.390Z,16.10
2023-04-03T20:51:38.868Z,13.20
2023-04-03T20:54:07.331Z,16.50
2023-04-03T20:56:35.660Z,15.50
2023-04-03T20:59:04.937Z,21.20
2023-04-03T21:01:33.509Z,18.10
2023-04-03T21:04:24.798Z,15.90
2023-04-03T21:07:48.437Z,18.20
2023-04-03T21:11:11.941Z,18.40
2023-04-03T21:14:35.381Z,18.70
2023-04-03T21:17:03.987Z,18.90
2023-04-03T21:19:31.905Z,20.70
2023-04-03T21:22:01.012Z,24.10
2023-04-03T21:24:29.509Z,23.80
2023-04-03T21:26:58.208Z,24.00
2023-04-03T21:29:26.209Z,20.40
2023-04-03T21:31:59.432Z,22.10
2023-04-03T21:34:31.968Z,24.50
2023-04-03T21:37:08.029Z,25.30
2023-04-03T21:39:36.237Z,24.30
2023-04-03T21:42:04.447Z,19.40
2023-04-03T21:44:32.589Z,17.30
2023-04-03T21:47:01.000Z,21.40
2023-04-03T21:49:29.493Z,20.90
2023-04-03T21:51:57.545Z,24.20
2023-04-03T21:54:25.488Z,21.90
2023-04-03T21:56:53.397Z,18.40
2023-04-03T21:59:21.659Z,16.70
2023-04-03T22:01:49.714Z,12.70
2023-04-03T22:04:17.638Z,15.20
2023-04-03T22:06:45.862Z,13.10
2023-04-03T22:09:14.039Z,14.80
2023-04-03T22:11:46.060Z,15.20
2023-04-03T22:14:14.170Z,16.90
2023-04-03T22:16:42.205Z,14.50
2023-04-03T22:19:10.160Z,17.00
2023-04-03T22:21:38.023Z,16.20
2023-04-03T22:24:06.214Z,15.00
2023-04-03T22:26:35.130Z,11.80
2023-04-03T22:29:03.773Z,12.70
2023-04-03T22:31:31.732Z,12.30
2023-04-03T22:34:03.896Z,9.80
2023-04-03T22:36:31.836Z,12.70
2023-04-03T22:39:00.620Z,11.40
2023-04-03T22:41:28.634Z,14.80
2023-04-03T22:43:57.760Z,11.20
2023-04-03T22:46:26.038Z,14.90
2023-04-03T22:48:53.922Z,13.40
2023-04-03T22:51:21.771Z,14.30
2023-04-03T22:53:49.594Z,13.10
2023-04-03T22:56:17.517Z,15.00
2023-04-03T22:58:48.041Z,12.80
2023-04-03T23:01:16.206Z,10.20
2023-04-03T23:03:44.048Z,13.70
2023-04-03T23:06:13.423Z,14.10
2023-04-03T23:08:42.759Z,14.60
2023-04-03T23:11:10.755Z,13.80
2023-04-03T23:13:38.693Z,11.80
2023-04-03T23:16:07.148Z,9.60
2023-04-03T23:18:39.800Z,12.60
2023-04-03T23:23:36.518Z,12.60
2023-04-03T23:26:04.457Z,10.30
2023-04-03T23:28:32.353Z,10.10
2023-04-03T23:31:02.415Z,8.80
2023-04-03T23:33:31.978Z,10.50
2023-04-03T23:36:07.338Z,12.10
2023-04-03T23:38:36.090Z,12.00
2023-04-03T23:41:03.984Z,8.50
2023-04-03T23:43:32.188Z,12.20
2023-04-03T23:46:00.219Z,9.90
2023-04-03T23:48:28.122Z,9.90
2023-04-03T23:50:56.280Z,9.50
2023-04-03T23:53:24.186Z,7.20
2023-04-03T23:55:52.169Z,6.70
2023-04-03T23:58:20.305Z,6.80
